Time,TemperatureF,DewpointF,PressureIn,WindDirection,WindDirectionDegrees,WindSpeedMPH,WindSpeedGustMPH,Humidity,HourlyPrecipIn,Conditions,Clouds,dailyrainin,SolarRadiationWatts/m^2,SoftwareType,DateUTC
2013-03-12 00:03:00,50.0,49.0,-100.00,West,261,4.0,7.0,98,0.03,,,1.20,0.000000,,2013-03-12 04:03:00,
2013-03-12 00:32:00,47.0,46.0,-100.00,West,260,4.0,12.0,95,0.12,,,1.32,0.000000,,2013-03-12 04:32:00,
2013-03-12 00:43:00,47.0,46.0,-100.00,West,260,4.0,12.0,95,0.12,,,1.32,0.000000,,2013-03-12 04:43:00,
2013-03-12 00:52:00,47.0,46.0,-100.00,West,260,4.0,12.0,95,0.12,,,1.32,0.000000,,2013-03-12 04:52:00,
2013-03-12 01:02:00,47.0,46.0,-100.00,West,260,4.0,12.0,95,0.12,,,1.32,0.000000,,2013-03-12 05:02:00,
2013-03-12 01:32:00,44.0,43.0,-100.00,NW,314,6.0,14.0,95,0.07,,,1.39,0.000000,,2013-03-12 05:32:00,
2013-03-12 01:42:00,44.0,43.0,-100.00,NW,314,6.0,14.0,95,0.07,,,1.39,0.000000,,2013-03-12 05:42:00,
2013-03-12 01:52:00,44.0,43.0,-100.00,NW,314,6.0,14.0,95,0.07,,,1.39,0.000000,,2013-03-12 05:52:00,
2013-03-12 02:02:00,44.0,43.0,-100.00,NW,314,6.0,14.0,95,0.07,,,1.39,0.000000,,2013-03-12 06:02:00,
2013-03-12 02:32:00,40.0,38.0,-100.00,NW,310,5.0,15.0,94,0.00,,,1.39,0.000000,,2013-03-12 06:32:00,
2013-03-12 02:42:00,40.0,38.0,-100.00,NW,310,5.0,15.0,94,0.00,,,1.39,0.000000,,2013-03-12 06:42:00,
2013-03-12 02:52:00,40.0,38.0,-100.00,NW,310,5.0,15.0,94,0.00,,,1.39,0.000000,,2013-03-12 06:52:00,
2013-03-12 03:02:00,40.0,38.0,-100.00,NW,310,5.0,15.0,94,0.00,,,1.39,0.000000,,2013-03-12 07:02:00,
2013-03-12 03:32:00,39.0,37.0,-100.00,West,278,2.0,11.0,92,0.01,,,1.40,0.000000,,2013-03-12 07:32:00,
2013-03-12 03:42:00,39.0,37.0,-100.00,West,278,2.0,11.0,92,0.01,,,1.40,0.000000,,2013-03-12 07:42:00,
2013-03-12 03:52:00,39.0,37.0,-100.00,West,278,2.0,11.0,92,0.01,,,1.40,0.000000,,2013-03-12 07:52:00,
2013-03-12 04:02:00,39.0,37.0,-100.00,West,278,2.0,11.0,92,0.01,,,1.40,0.000000,,2013-03-12 08:02:00,
2013-03-12 04:33:00,38.0,37.0,-100.00,NW,324,3.0,9.0,96,0.00,,,1.40,0.000000,,2013-03-12 08:33:00,
2013-03-12 04:42:00,38.0,37.0,-100.00,NW,324,3.0,9.0,96,0.00,,,1.40,0.000000,,2013-03-12 08:42:00,
2013-03-12 04:52:00,38.0,37.0,-100.00,NW,324,3.0,9.0,96,0.00,,,1.40,0.000000,,2013-03-12 08:52:00,
2013-03-12 05:03:00,38.0,37.0,-100.00,NW,324,3.0,9.0,96,0.00,,,1.40,0.000000,,2013-03-12 09:03:00,
2013-03-12 05:33:00,36.0,34.0,-100.00,NW,315,4.0,9.0,91,0.00,,,1.40,0.000000,,2013-03-12 09:33:00,
2013-03-12 05:43:00,36.0,34.0,-100.00,NW,315,4.0,9.0,91,0.00,,,1.40,0.000000,,2013-03-12 09:43:00,
2013-03-12 05:52:00,36.0,34.0,-100.00,NW,315,4.0,9.0,91,0.00,,,1.40,0.000000,,2013-03-12 09:52:00,
2013-03-12 06:02:00,36.0,34.0,-100.00,NW,315,4.0,9.0,91,0.00,,,1.40,0.000000,,2013-03-12 10:02:00,
2013-03-12 06:33:00,35.0,33.0,-100.00,WSW,239,3.0,11.0,92,0.00,,,1.40,0.000000,,2013-03-12 10:33:00,
2013-03-12 06:42:00,35.0,33.0,-100.00,WSW,239,3.0,11.0,92,0.00,,,1.40,0.000000,,2013-03-12 10:42:00,
2013-03-12 06:53:00,35.0,33.0,-100.00,WSW,239,3.0,11.0,92,0.00,,,1.40,0.000000,,2013-03-12 10:53:00,
2013-03-12 07:02:00,35.0,33.0,-100.00,WSW,239,3.0,11.0,92,0.00,,,1.40,0.000000,,2013-03-12 11:02:00,
2013-03-12 07:33:00,35.0,32.0,-100.00,East,85,3.0,16.0,89,0.00,,,1.40,0.000000,,2013-03-12 11:33:00,
2013-03-12 07:42:00,35.0,32.0,-100.00,East,85,3.0,16.0,89,0.00,,,1.40,0.000000,,2013-03-12 11:42:00,
2013-03-12 07:52:00,35.0,32.0,-100.00,East,85,3.0,16.0,89,0.00,,,1.40,0.000000,,2013-03-12 11:52:00,
2013-03-12 08:03:00,35.0,32.0,-100.00,East,85,3.0,16.0,89,0.00,,,1.40,0.000000,,2013-03-12 12:03:00,
2013-03-12 08:32:00,34.0,31.0,-100.00,NW,325,3.0,13.0,88,0.00,,,1.40,1.000000,,2013-03-12 12:32:00,
2013-03-12 08:42:00,34.0,31.0,-100.00,NW,325,3.0,13.0,88,0.00,,,1.40,1.000000,,2013-03-12 12:42:00,
2013-03-12 08:52:00,34.0,31.0,-100.00,NW,325,3.0,13.0,88,0.00,,,1.40,1.000000,,2013-03-12 12:52:00,
2013-03-12 09:02:00,34.0,31.0,-100.00,NW,325,3.0,13.0,88,0.00,,,1.40,1.000000,,2013-03-12 13:02:00,
2013-03-12 09:33:00,35.0,31.0,-100.00,NNW,336,5.0,10.0,85,0.00,,,1.40,42.000000,,2013-03-12 13:33:00,
2013-03-12 09:43:00,35.0,31.0,-100.00,NNW,336,5.0,10.0,85,0.00,,,1.40,42.000000,,2013-03-12 13:43:00,
2013-03-12 09:52:00,35.0,31.0,-100.00,NNW,336,5.0,10.0,85,0.00,,,1.40,42.000000,,2013-03-12 13:52:00,
2013-03-12 10:02:00,35.0,31.0,-100.00,NNW,336,5.0,10.0,85,0.00,,,1.40,42.000000,,2013-03-12 14:02:00,
2013-03-12 10:33:00,41.0,33.0,-100.00,NW,316,4.0,9.0,72,0.00,,,1.40,351.000000,,2013-03-12 14:33:00,
2013-03-12 10:43:00,41.0,33.0,-100.00,NW,316,4.0,9.0,72,0.00,,,1.40,351.000000,,2013-03-12 14:43:00,
2013-03-12 10:53:00,41.0,33.0,-100.00,NW,316,4.0,9.0,72,0.00,,,1.40,351.000000,,2013-03-12 14:53:00,
2013-03-12 11:03:00,41.0,33.0,-100.00,NW,316,4.0,9.0,72,0.00,,,1.40,351.000000,,2013-03-12 15:03:00,
2013-03-12 11:32:00,39.0,31.0,-100.00,NNW,328,8.0,15.0,74,0.00,,,1.40,385.000000,,2013-03-12 15:32:00,
2013-03-12 11:43:00,39.0,31.0,-100.00,NNW,328,8.0,15.0,74,0.00,,,1.40,385.000000,,2013-03-12 15:43:00,
2013-03-12 11:53:00,39.0,31.0,-100.00,NNW,328,8.0,15.0,74,0.00,,,1.40,385.000000,,2013-03-12 15:53:00,
2013-03-12 12:03:00,39.0,31.0,-100.00,NNW,328,8.0,15.0,74,0.00,,,1.40,385.000000,,2013-03-12 16:03:00,
2013-03-12 12:33:00,44.0,35.0,-100.00,NE,34,5.0,14.0,70,0.00,,,1.40,664.000000,,2013-03-12 16:33:00,
2013-03-12 12:43:00,44.0,35.0,-100.00,NE,34,5.0,14.0,70,0.00,,,1.40,664.000000,,2013-03-12 16:43:00,
2013-03-12 12:53:00,44.0,35.0,-100.00,NE,34,5.0,14.0,70,0.00,,,1.40,664.000000,,2013-03-12 16:53:00,
2013-03-12 13:03:00,44.0,35.0,-100.00,NE,34,5.0,14.0,70,0.00,,,1.40,664.000000,,2013-03-12 17:03:00,
2013-03-12 13:34:00,48.0,34.0,-100.00,North,11,5.0,13.0,58,0.00,,,-99.99,949.000000,,2013-03-12 17:34:00,
2013-03-12 13:44:00,48.0,34.0,-100.00,North,11,5.0,13.0,58,0.00,,,-99.99,949.000000,,2013-03-12 17:44:00,
2013-03-12 13:54:00,48.0,34.0,-100.00,North,11,5.0,13.0,58,0.00,,,-99.99,949.000000,,2013-03-12 17:54:00,
2013-03-12 14:03:00,48.0,34.0,-100.00,North,11,5.0,13.0,58,0.00,,,-99.99,949.000000,,2013-03-12 18:03:00,
2013-03-12 14:33:00,49.0,33.0,-100.00,NNE,30,7.0,16.0,54,0.00,,,1.40,1004.000000,,2013-03-12 18:33:00,
2013-03-12 14:43:00,49.0,33.0,-100.00,NNE,30,7.0,16.0,54,0.00,,,1.40,1004.000000,,2013-03-12 18:43:00,
2013-03-12 14:53:00,49.0,33.0,-100.00,NNE,30,7.0,16.0,54,0.00,,,1.40,1004.000000,,2013-03-12 18:53:00,
2013-03-12 15:04:00,49.0,33.0,-100.00,NNE,30,7.0,16.0,54,0.00,,,1.40,1004.000000,,2013-03-12 19:04:00,
2013-03-12 15:33:00,53.0,34.0,-100.00,South,178,3.0,16.0,49,0.00,,,1.40,975.000000,,2013-03-12 19:33:00,
2013-03-12 15:44:00,53.0,34.0,-100.00,South,178,3.0,16.0,49,0.00,,,1.40,975.000000,,2013-03-12 19:44:00,
2013-03-12 15:53:00,53.0,34.0,-100.00,South,178,3.0,16.0,49,0.00,,,1.40,975.000000,,2013-03-12 19:53:00,
2013-03-12 16:02:00,53.0,34.0,-100.00,South,178,3.0,16.0,49,0.00,,,1.40,975.000000,,2013-03-12 20:02:00,
2013-03-12 16:33:00,52.0,30.0,-100.00,NW,324,7.0,14.0,42,0.00,,,1.21,871.000000,,2013-03-12 20:33:00,
2013-03-12 16:42:00,52.0,30.0,-100.00,NW,324,7.0,14.0,42,0.00,,,1.21,871.000000,,2013-03-12 20:42:00,
2013-03-12 16:53:00,52.0,30.0,-100.00,NW,324,7.0,14.0,42,0.00,,,1.21,871.000000,,2013-03-12 20:53:00,
2013-03-12 17:03:00,52.0,30.0,-100.00,NW,324,7.0,14.0,42,0.00,,,1.21,871.000000,,2013-03-12 21:03:00,
2013-03-12 17:33:00,52.0,28.0,-100.00,NW,314,7.0,22.0,40,0.00,,,0.77,711.000000,,2013-03-12 21:33:00,
2013-03-12 17:43:00,52.0,28.0,-100.00,NW,314,7.0,22.0,40,0.00,,,0.77,711.000000,,2013-03-12 21:43:00,
2013-03-12 17:53:00,52.0,28.0,-100.00,NW,314,7.0,22.0,40,0.00,,,0.77,711.000000,,2013-03-12 21:53:00,
2013-03-12 18:03:00,52.0,28.0,-100.00,NW,314,7.0,22.0,40,0.00,,,0.77,711.000000,,2013-03-12 22:03:00,
2013-03-12 18:33:00,50.0,27.0,-100.00,East,82,5.0,20.0,40,0.00,,,0.56,495.000000,,2013-03-12 22:33:00,
2013-03-12 18:43:00,50.0,27.0,-100.00,East,82,5.0,20.0,40,0.00,,,0.56,495.000000,,2013-03-12 22:43:00,
2013-03-12 18:53:00,50.0,27.0,-100.00,East,82,5.0,20.0,40,0.00,,,0.56,495.000000,,2013-03-12 22:53:00,
2013-03-12 19:03:00,50.0,27.0,-100.00,East,82,5.0,20.0,40,0.00,,,0.56,495.000000,,2013-03-12 23:03:00,
2013-03-12 19:34:00,48.0,28.0,-100.00,NNE,28,5.0,16.0,46,0.00,,,0.34,245.000000,,2013-03-12 23:34:00,
2013-03-12 19:43:00,48.0,28.0,-100.00,NNE,28,5.0,16.0,46,0.00,,,0.34,245.000000,,2013-03-12 23:43:00,
2013-03-12 19:53:00,48.0,28.0,-100.00,NNE,28,5.0,16.0,46,0.00,,,0.34,245.000000,,2013-03-12 23:53:00,
2013-03-12 20:03:00,48.0,28.0,-100.00,NNE,28,5.0,16.0,46,0.00,,,0.34,245.000000,,2013-03-13 00:03:00,
2013-03-12 20:33:00,43.0,27.0,-100.00,WNW,292,2.0,11.0,53,0.00,,,0.23,28.000000,,2013-03-13 00:33:00,
2013-03-12 20:42:00,43.0,27.0,-100.00,WNW,292,2.0,11.0,53,0.00,,,0.23,28.000000,,2013-03-13 00:42:00,
2013-03-12 20:53:00,43.0,27.0,-100.00,WNW,292,2.0,11.0,53,0.00,,,0.23,28.000000,,2013-03-13 00:53:00,
2013-03-12 21:03:00,43.0,27.0,-100.00,WNW,292,2.0,11.0,53,0.00,,,0.23,28.000000,,2013-03-13 01:03:00,
2013-03-12 21:33:00,39.0,30.0,-100.00,West,275,1.0,6.0,69,0.00,,,0.23,0.000000,,2013-03-13 01:33:00,
2013-03-12 21:43:00,39.0,30.0,-100.00,West,275,1.0,6.0,69,0.00,,,0.23,0.000000,,2013-03-13 01:43:00,
2013-03-12 21:53:00,39.0,30.0,-100.00,West,275,1.0,6.0,69,0.00,,,0.23,0.000000,,2013-03-13 01:53:00,
2013-03-12 22:03:00,39.0,30.0,-100.00,West,275,1.0,6.0,69,0.00,,,0.23,0.000000,,2013-03-13 02:03:00,
2013-03-12 22:33:00,36.0,31.0,-100.00,East,86,2.0,4.0,81,0.00,,,0.23,0.000000,,2013-03-13 02:33:00,
2013-03-12 22:43:00,36.0,31.0,-100.00,East,86,2.0,4.0,81,0.00,,,0.23,0.000000,,2013-03-13 02:43:00,
2013-03-12 22:53:00,36.0,31.0,-100.00,East,86,2.0,4.0,81,0.00,,,0.23,0.000000,,2013-03-13 02:53:00,
2013-03-12 23:02:00,36.0,31.0,-100.00,East,86,2.0,4.0,81,0.00,,,0.23,0.000000,,2013-03-13 03:02:00,
2013-03-12 23:33:00,34.0,31.0,-100.00,WNW,295,1.0,4.0,89,0.00,,,0.20,0.000000,,2013-03-13 03:33:00,
2013-03-12 23:42:00,34.0,31.0,-100.00,WNW,295,1.0,4.0,89,0.00,,,0.20,0.000000,,2013-03-13 03:42:00,
2013-03-12 23:53:00,34.0,31.0,-100.00,WNW,295,1.0,4.0,89,0.00,,,0.20,0.000000,,2013-03-13 03:53:00,